sensor_id;sensor_type;location;lat;lon;timestamp;P1;durP1;ratioP1;P2;durP2;ratioP2
58101;SDS011;52034;51.926;6.320;2023-07-13T00:00:16;9.77;;;4.23;;
58101;SDS011;52034;51.926;6.320;2023-07-13T00:01:16;10.33;;;4.00;;
58101;SDS011;52034;51.926;6.320;2023-07-13T00:02:17;13.03;;;4.27;;
58101;SDS011;52034;51.926;6.320;2023-07-13T00:03:17;15.20;;;4.70;;
58101;SDS011;52034;51.926;6.320;2023-07-13T00:04:19;10.03;;;4.00;;
58101;SDS011;52034;51.926;6.320;2023-07-13T00:05:21;11.23;;;4.32;;
58101;SDS011;52034;51.926;6.320;2023-07-13T00:06:23;14.63;;;4.80;;
58101;SDS011;52034;51.926;6.320;2023-07-13T00:07:24;10.98;;;3.90;;
58101;SDS011;52034;51.926;6.320;2023-07-13T00:08:24;9.60;;;3.90;;
58101;SDS011;52034;51.926;6.320;2023-07-13T00:09:24;11.50;;;4.60;;
58101;SDS011;52034;51.926;6.320;2023-07-13T00:10:25;6.63;;;3.57;;
58101;SDS011;52034;51.926;6.320;2023-07-13T00:11:26;12.20;;;4.20;;
58101;SDS011;52034;51.926;6.320;2023-07-13T00:12:28;8.80;;;3.67;;
58101;SDS011;52034;51.926;6.320;2023-07-13T00:13:30;8.85;;;3.38;;
58101;SDS011;52034;51.926;6.320;2023-07-13T00:14:31;11.83;;;3.40;;
58101;SDS011;52034;51.926;6.320;2023-07-13T00:15:31;8.73;;;3.00;;
58101;SDS011;52034;51.926;6.320;2023-07-13T00:16:33;13.60;;;3.43;;
58101;SDS011;52034;51.926;6.320;2023-07-13T00:17:35;9.93;;;3.40;;
58101;SDS011;52034;51.926;6.320;2023-07-13T00:18:35;10.73;;;2.97;;
58101;SDS011;52034;51.926;6.320;2023-07-13T00:19:37;10.30;;;3.35;;
58101;SDS011;52034;51.926;6.320;2023-07-13T00:20:38;9.20;;;3.83;;
58101;SDS011;52034;51.926;6.320;2023-07-13T00:21:39;5.93;;;2.57;;
58101;SDS011;52034;51.926;6.320;2023-07-13T00:23:41;9.90;;;3.65;;
58101;SDS011;52034;51.926;6.320;2023-07-13T00:24:42;7.95;;;2.92;;
58101;SDS011;52034;51.926;6.320;2023-07-13T00:25:43;7.70;;;2.83;;
58101;SDS011;52034;51.926;6.320;2023-07-13T00:26:44;10.20;;;3.03;;
58101;SDS011;52034;51.926;6.320;2023-07-13T00:27:46;10.82;;;3.13;;
58101;SDS011;52034;51.926;6.320;2023-07-13T00:28:49;10.85;;;3.10;;
58101;SDS011;52034;51.926;6.320;2023-07-13T00:29:49;8.37;;;3.00;;
58101;SDS011;52034;51.926;6.320;2023-07-13T00:30:50;9.07;;;2.57;;
58101;SDS011;52034;51.926;6.320;2023-07-13T00:31:50;5.80;;;2.40;;
58101;SDS011;52034;51.926;6.320;2023-07-13T00:32:51;11.50;;;2.80;;
58101;SDS011;52034;51.926;6.320;2023-07-13T00:33:51;6.73;;;2.67;;
58101;SDS011;52034;51.926;6.320;2023-07-13T00:34:52;10.47;;;3.13;;
58101;SDS011;52034;51.926;6.320;2023-07-13T00:35:53;10.00;;;3.10;;
58101;SDS011;52034;51.926;6.320;2023-07-13T00:37:54;8.52;;;3.00;;
58101;SDS011;52034;51.926;6.320;2023-07-13T00:38:57;7.72;;;2.80;;
58101;SDS011;52034;51.926;6.320;2023-07-13T00:39:58;9.40;;;3.13;;
58101;SDS011;52034;51.926;6.320;2023-07-13T00:40:59;6.80;;;2.57;;
58101;SDS011;52034;51.926;6.320;2023-07-13T00:42:00;9.30;;;3.23;;
58101;SDS011;52034;51.926;6.320;2023-07-13T00:43:01;6.70;;;2.80;;
58101;SDS011;52034;51.926;6.320;2023-07-13T00:44:03;7.15;;;3.20;;
58101;SDS011;52034;51.926;6.320;2023-07-13T00:46:31;9.13;;;3.25;;
58101;SDS011;52034;51.926;6.320;2023-07-13T00:47:33;9.52;;;2.95;;
58101;SDS011;52034;51.926;6.320;2023-07-13T00:48:34;7.43;;;2.83;;
58101;SDS011;52034;51.926;6.320;2023-07-13T00:49:37;8.40;;;3.15;;
58101;SDS011;52034;51.926;6.320;2023-07-13T00:50:38;7.67;;;2.80;;
58101;SDS011;52034;51.926;6.320;2023-07-13T00:51:42;6.30;;;2.70;;
58101;SDS011;52034;51.926;6.320;2023-07-13T00:52:52;14.43;;;3.03;;
58101;SDS011;52034;51.926;6.320;2023-07-13T00:53:56;7.65;;;3.20;;
58101;SDS011;52034;51.926;6.320;2023-07-13T00:54:59;13.75;;;3.30;;
58101;SDS011;52034;51.926;6.320;2023-07-13T00:55:59;10.40;;;2.87;;
58101;SDS011;52034;51.926;6.320;2023-07-13T00:57:02;9.35;;;2.72;;
58101;SDS011;52034;51.926;6.320;2023-07-13T00:58:05;8.98;;;2.97;;
58101;SDS011;52034;51.926;6.320;2023-07-13T00:59:07;7.72;;;2.80;;
58101;SDS011;52034;51.926;6.320;2023-07-13T01:00:09;7.28;;;3.00;;
58101;SDS011;52034;51.926;6.320;2023-07-13T01:01:12;11.32;;;3.42;;
58101;SDS011;52034;51.926;6.320;2023-07-13T01:02:13;8.45;;;3.00;;
58101;SDS011;52034;51.926;6.320;2023-07-13T01:03:14;6.73;;;2.83;;
58101;SDS011;52034;51.926;6.320;2023-07-13T01:04:16;9.98;;;3.05;;
58101;SDS011;52034;51.926;6.320;2023-07-13T01:05:19;11.02;;;2.95;;
58101;SDS011;52034;51.926;6.320;2023-07-13T01:06:21;8.00;;;2.97;;
58101;SDS011;52034;51.926;6.320;2023-07-13T01:07:21;8.60;;;3.47;;
58101;SDS011;52034;51.926;6.320;2023-07-13T01:08:22;8.20;;;2.67;;
58101;SDS011;52034;51.926;6.320;2023-07-13T01:09:23;7.73;;;3.20;;
58101;SDS011;52034;51.926;6.320;2023-07-13T01:10:24;6.93;;;2.88;;
58101;SDS011;52034;51.926;6.320;2023-07-13T01:11:26;8.73;;;3.33;;
58101;SDS011;52034;51.926;6.320;2023-07-13T01:12:26;13.53;;;3.37;;
58101;SDS011;52034;51.926;6.320;2023-07-13T01:13:27;7.10;;;3.13;;
58101;SDS011;52034;51.926;6.320;2023-07-13T01:14:27;14.30;;;3.20;;
58101;SDS011;52034;51.926;6.320;2023-07-13T01:16:38;6.72;;;3.15;;
58101;SDS011;52034;51.926;6.320;2023-07-13T01:17:41;8.80;;;3.20;;
58101;SDS011;52034;51.926;6.320;2023-07-13T01:19:44;6.88;;;2.92;;
58101;SDS011;52034;51.926;6.320;2023-07-13T01:21:51;7.82;;;3.00;;
58101;SDS011;52034;51.926;6.320;2023-07-13T01:22:52;8.85;;;2.92;;
58101;SDS011;52034;51.926;6.320;2023-07-13T01:23:53;11.37;;;3.50;;
58101;SDS011;52034;51.926;6.320;2023-07-13T01:24:54;7.13;;;2.92;;
58101;SDS011;52034;51.926;6.320;2023-07-13T01:25:55;8.43;;;3.27;;
58101;SDS011;52034;51.926;6.320;2023-07-13T01:26:56;8.77;;;3.13;;
58101;SDS011;52034;51.926;6.320;2023-07-13T01:27:57;9.43;;;3.73;;
58101;SDS011;52034;51.926;6.320;2023-07-13T01:28:57;8.57;;;3.50;;
58101;SDS011;52034;51.926;6.320;2023-07-13T01:29:58;11.33;;;3.47;;
58101;SDS011;52034;51.926;6.320;2023-07-13T01:31:03;7.88;;;3.08;;
58101;SDS011;52034;51.926;6.320;2023-07-13T01:32:04;6.32;;;2.75;;
58101;SDS011;52034;51.926;6.320;2023-07-13T01:33:08;6.70;;;2.92;;
58101;SDS011;52034;51.926;6.320;2023-07-13T01:34:09;9.30;;;3.10;;
58101;SDS011;52034;51.926;6.320;2023-07-13T01:35:11;5.85;;;2.78;;
58101;SDS011;52034;51.926;6.320;2023-07-13T01:36:12;14.68;;;3.60;;
58101;SDS011;52034;51.926;6.320;2023-07-13T01:37:13;11.27;;;3.42;;
58101;SDS011;52034;51.926;6.320;2023-07-13T01:38:14;9.43;;;3.27;;
58101;SDS011;52034;51.926;6.320;2023-07-13T01:39:17;11.38;;;3.13;;
58101;SDS011;52034;51.926;6.320;2023-07-13T01:40:17;11.97;;;3.40;;
58101;SDS011;52034;51.926;6.320;2023-07-13T01:41:18;10.23;;;3.43;;
58101;SDS011;52034;51.926;6.320;2023-07-13T01:43:22;8.35;;;3.28;;
58101;SDS011;52034;51.926;6.320;2023-07-13T01:44:22;12.03;;;3.70;;
58101;SDS011;52034;51.926;6.320;2023-07-13T01:45:23;8.30;;;3.60;;
58101;SDS011;52034;51.926;6.320;2023-07-13T01:46:23;10.20;;;3.60;;
58101;SDS011;52034;51.926;6.320;2023-07-13T01:47:24;10.47;;;3.30;;
58101;SDS011;52034;51.926;6.320;2023-07-13T01:48:26;10.55;;;3.90;;
58101;SDS011;52034;51.926;6.320;2023-07-13T01:49:26;9.40;;;3.77;;
58101;SDS011;52034;51.926;6.320;2023-07-13T01:50:26;8.03;;;3.53;;
58101;SDS011;52034;51.926;6.320;2023-07-13T01:51:27;8.77;;;3.57;;
58101;SDS011;52034;51.926;6.320;2023-07-13T01:52:28;10.60;;;3.60;;
58101;SDS011;52034;51.926;6.320;2023-07-13T01:53:28;7.87;;;3.77;;
58101;SDS011;52034;51.926;6.320;2023-07-13T01:54:29;8.55;;;3.63;;
58101;SDS011;52034;51.926;6.320;2023-07-13T01:55:30;6.97;;;3.30;;
58101;SDS011;52034;51.926;6.320;2023-07-13T01:57:31;8.32;;;3.28;;
58101;SDS011;52034;51.926;6.320;2023-07-13T01:58:32;13.33;;;3.97;;
58101;SDS011;52034;51.926;6.320;2023-07-13T01:59:32;7.37;;;3.47;;
58101;SDS011;52034;51.926;6.320;2023-07-13T02:00:33;11.37;;;3.87;;
58101;SDS011;52034;51.926;6.320;2023-07-13T02:01:36;9.85;;;3.50;;
58101;SDS011;52034;51.926;6.320;2023-07-13T02:02:36;9.90;;;3.67;;
58101;SDS011;52034;51.926;6.320;2023-07-13T02:03:36;7.80;;;3.57;;
58101;SDS011;52034;51.926;6.320;2023-07-13T02:04:37;9.97;;;3.57;;
58101;SDS011;52034;51.926;6.320;2023-07-13T02:05:37;8.53;;;3.57;;
58101;SDS011;52034;51.926;6.320;2023-07-13T02:06:38;10.00;;;3.60;;
58101;SDS011;52034;51.926;6.320;2023-07-13T02:07:38;10.57;;;3.83;;
58101;SDS011;52034;51.926;6.320;2023-07-13T02:08:40;12.75;;;4.40;;
58101;SDS011;52034;51.926;6.320;2023-07-13T02:09:41;8.60;;;3.78;;
58101;SDS011;52034;51.926;6.320;2023-07-13T02:10:42;8.35;;;3.70;;
58101;SDS011;52034;51.926;6.320;2023-07-13T02:11:42;8.60;;;4.10;;
58101;SDS011;52034;51.926;6.320;2023-07-13T02:12:43;10.37;;;3.97;;
58101;SDS011;52034;51.926;6.320;2023-07-13T02:13:44;7.88;;;3.63;;
58101;SDS011;52034;51.926;6.320;2023-07-13T02:14:44;11.43;;;4.03;;
58101;SDS011;52034;51.926;6.320;2023-07-13T02:15:45;9.43;;;3.67;;
58101;SDS011;52034;51.926;6.320;2023-07-13T02:16:45;10.13;;;3.53;;
58101;SDS011;52034;51.926;6.320;2023-07-13T02:17:46;8.07;;;3.50;;
58101;SDS011;52034;51.926;6.320;2023-07-13T02:18:46;11.83;;;4.30;;
58101;SDS011;52034;51.926;6.320;2023-07-13T02:19:46;10.43;;;3.77;;
58101;SDS011;52034;51.926;6.320;2023-07-13T02:20:47;9.60;;;4.00;;
58101;SDS011;52034;51.926;6.320;2023-07-13T02:21:48;15.23;;;4.13;;
58101;SDS011;52034;51.926;6.320;2023-07-13T02:22:48;11.53;;;4.07;;
58101;SDS011;52034;51.926;6.320;2023-07-13T02:23:49;7.63;;;3.57;;
58101;SDS011;52034;51.926;6.320;2023-07-13T02:24:50;8.82;;;3.55;;
58101;SDS011;52034;51.926;6.320;2023-07-13T02:25:59;8.30;;;3.75;;
58101;SDS011;52034;51.926;6.320;2023-07-13T02:27:02;8.23;;;3.58;;
58101;SDS011;52034;51.926;6.320;2023-07-13T02:28:03;9.70;;;3.43;;
58101;SDS011;52034;51.926;6.320;2023-07-13T02:29:03;10.53;;;3.90;;
58101;SDS011;52034;51.926;6.320;2023-07-13T02:30:04;5.77;;;3.33;;
58101;SDS011;52034;51.926;6.320;2023-07-13T02:31:09;9.60;;;3.53;;
58101;SDS011;52034;51.926;6.320;2023-07-13T02:32:10;8.48;;;3.58;;
58101;SDS011;52034;51.926;6.320;2023-07-13T02:33:11;10.53;;;4.30;;
58101;SDS011;52034;51.926;6.320;2023-07-13T02:34:11;7.07;;;3.57;;
58101;SDS011;52034;51.926;6.320;2023-07-13T02:35:12;8.47;;;3.60;;
58101;SDS011;52034;51.926;6.320;2023-07-13T02:36:12;11.43;;;4.03;;
58101;SDS011;52034;51.926;6.320;2023-07-13T02:37:17;9.82;;;4.47;;
58101;SDS011;52034;51.926;6.320;2023-07-13T02:38:17;10.97;;;3.80;;
58101;SDS011;52034;51.926;6.320;2023-07-13T02:39:18;10.03;;;3.77;;
58101;SDS011;52034;51.926;6.320;2023-07-13T02:40:18;15.53;;;4.70;;
58101;SDS011;52034;51.926;6.320;2023-07-13T02:41:18;7.73;;;3.80;;
58101;SDS011;52034;51.926;6.320;2023-07-13T02:42:20;8.52;;;3.38;;
58101;SDS011;52034;51.926;6.320;2023-07-13T02:43:20;9.30;;;3.73;;
58101;SDS011;52034;51.926;6.320;2023-07-13T02:44:21;11.63;;;4.15;;
58101;SDS011;52034;51.926;6.320;2023-07-13T02:45:21;10.53;;;3.97;;
58101;SDS011;52034;51.926;6.320;2023-07-13T02:46:22;9.40;;;4.27;;
58101;SDS011;52034;51.926;6.320;2023-07-13T02:47:24;10.40;;;3.92;;
58101;SDS011;52034;51.926;6.320;2023-07-13T02:48:24;6.27;;;4.00;;
58101;SDS011;52034;51.926;6.320;2023-07-13T02:49:25;9.53;;;3.87;;
58101;SDS011;52034;51.926;6.320;2023-07-13T02:50:25;10.47;;;3.83;;
58101;SDS011;52034;51.926;6.320;2023-07-13T02:51:25;9.00;;;3.80;;
58101;SDS011;52034;51.926;6.320;2023-07-13T02:52:26;11.13;;;4.10;;
58101;SDS011;52034;51.926;6.320;2023-07-13T02:53:27;9.97;;;3.93;;
58101;SDS011;52034;51.926;6.320;2023-07-13T02:54:27;10.00;;;3.70;;
58101;SDS011;52034;51.926;6.320;2023-07-13T02:55:27;10.37;;;3.60;;
58101;SDS011;52034;51.926;6.320;2023-07-13T02:56:29;10.33;;;3.87;;
58101;SDS011;52034;51.926;6.320;2023-07-13T02:57:30;9.70;;;3.50;;
58101;SDS011;52034;51.926;6.320;2023-07-13T02:58:33;9.68;;;3.80;;
58101;SDS011;52034;51.926;6.320;2023-07-13T02:59:35;10.27;;;3.80;;
58101;SDS011;52034;51.926;6.320;2023-07-13T03:00:37;8.32;;;3.78;;
58101;SDS011;52034;51.926;6.320;2023-07-13T03:01:41;11.82;;;4.20;;
58101;SDS011;52034;51.926;6.320;2023-07-13T03:02:41;9.63;;;4.03;;
58101;SDS011;52034;51.926;6.320;2023-07-13T03:03:42;11.53;;;3.97;;
58101;SDS011;52034;51.926;6.320;2023-07-13T03:04:43;8.82;;;4.00;;
58101;SDS011;52034;51.926;6.320;2023-07-13T03:05:44;13.83;;;4.10;;
58101;SDS011;52034;51.926;6.320;2023-07-13T03:06:49;11.50;;;4.25;;
58101;SDS011;52034;51.926;6.320;2023-07-13T03:07:50;10.82;;;4.10;;
58101;SDS011;52034;51.926;6.320;2023-07-13T03:08:50;10.87;;;3.73;;
58101;SDS011;52034;51.926;6.320;2023-07-13T03:09:57;11.40;;;4.13;;
58101;SDS011;52034;51.926;6.320;2023-07-13T03:11:05;8.02;;;3.78;;
58101;SDS011;52034;51.926;6.320;2023-07-13T03:12:09;14.70;;;4.57;;
58101;SDS011;52034;51.926;6.320;2023-07-13T03:13:10;9.32;;;4.35;;
58101;SDS011;52034;51.926;6.320;2023-07-13T03:14:11;10.52;;;4.40;;
58101;SDS011;52034;51.926;6.320;2023-07-13T03:15:12;9.65;;;4.15;;
58101;SDS011;52034;51.926;6.320;2023-07-13T03:16:16;9.60;;;4.10;;
58101;SDS011;52034;51.926;6.320;2023-07-13T03:17:19;10.38;;;4.03;;
58101;SDS011;52034;51.926;6.320;2023-07-13T03:18:19;12.40;;;4.40;;
58101;SDS011;52034;51.926;6.320;2023-07-13T03:19:20;6.45;;;3.70;;
58101;SDS011;52034;51.926;6.320;2023-07-13T03:20:24;6.93;;;3.47;;
58101;SDS011;52034;51.926;6.320;2023-07-13T03:21:24;10.87;;;3.77;;
58101;SDS011;52034;51.926;6.320;2023-07-13T03:22:25;7.90;;;3.80;;
58101;SDS011;52034;51.926;6.320;2023-07-13T03:23:26;7.65;;;4.15;;
58101;SDS011;52034;51.926;6.320;2023-07-13T03:24:27;7.70;;;3.60;;
58101;SDS011;52034;51.926;6.320;2023-07-13T03:25:28;12.32;;;4.43;;
58101;SDS011;52034;51.926;6.320;2023-07-13T03:26:29;8.30;;;3.63;;
58101;SDS011;52034;51.926;6.320;2023-07-13T03:27:30;8.88;;;3.88;;
58101;SDS011;52034;51.926;6.320;2023-07-13T03:28:31;9.13;;;4.03;;
58101;SDS011;52034;51.926;6.320;2023-07-13T03:29:31;12.67;;;4.20;;
58101;SDS011;52034;51.926;6.320;2023-07-13T03:30:32;8.07;;;3.80;;
58101;SDS011;52034;51.926;6.320;2023-07-13T03:31:33;11.70;;;4.00;;
58101;SDS011;52034;51.926;6.320;2023-07-13T03:32:35;13.02;;;4.43;;
58101;SDS011;52034;51.926;6.320;2023-07-13T03:33:35;10.90;;;4.20;;
58101;SDS011;52034;51.926;6.320;2023-07-13T03:34:36;10.32;;;4.00;;
58101;SDS011;52034;51.926;6.320;2023-07-13T03:35:40;10.23;;;3.83;;
58101;SDS011;52034;51.926;6.320;2023-07-13T03:36:41;9.05;;;3.55;;
58101;SDS011;52034;51.926;6.320;2023-07-13T03:37:44;8.43;;;3.50;;
58101;SDS011;52034;51.926;6.320;2023-07-13T03:38:54;10.95;;;4.43;;
58101;SDS011;52034;51.926;6.320;2023-07-13T03:39:59;10.35;;;3.80;;
58101;SDS011;52034;51.926;6.320;2023-07-13T03:41:00;10.88;;;3.53;;
58101;SDS011;52034;51.926;6.320;2023-07-13T03:42:01;8.85;;;3.88;;
58101;SDS011;52034;51.926;6.320;2023-07-13T03:43:02;7.90;;;3.77;;
58101;SDS011;52034;51.926;6.320;2023-07-13T03:45:05;10.10;;;3.65;;
58101;SDS011;52034;51.926;6.320;2023-07-13T03:46:07;10.40;;;3.85;;
58101;SDS011;52034;51.926;6.320;2023-07-13T03:47:07;9.90;;;3.73;;
58101;SDS011;52034;51.926;6.320;2023-07-13T03:48:09;10.93;;;4.05;;
58101;SDS011;52034;51.926;6.320;2023-07-13T03:49:09;9.35;;;4.07;;
58101;SDS011;52034;51.926;6.320;2023-07-13T03:50:11;9.32;;;4.03;;
58101;SDS011;52034;51.926;6.320;2023-07-13T03:51:12;9.32;;;3.95;;
58101;SDS011;52034;51.926;6.320;2023-07-13T03:52:15;8.93;;;4.53;;
58101;SDS011;52034;51.926;6.320;2023-07-13T03:53:16;7.93;;;3.90;;
58101;SDS011;52034;51.926;6.320;2023-07-13T03:54:16;13.47;;;4.30;;
58101;SDS011;52034;51.926;6.320;2023-07-13T03:56:19;12.95;;;4.10;;
58101;SDS011;52034;51.926;6.320;2023-07-13T03:57:20;10.30;;;3.80;;
58101;SDS011;52034;51.926;6.320;2023-07-13T03:58:37;11.00;;;4.27;;
58101;SDS011;52034;51.926;6.320;2023-07-13T03:59:45;8.77;;;3.75;;
58101;SDS011;52034;51.926;6.320;2023-07-13T04:00:46;13.37;;;4.10;;
58101;SDS011;52034;51.926;6.320;2023-07-13T04:01:46;7.53;;;3.80;;
58101;SDS011;52034;51.926;6.320;2023-07-13T04:02:47;12.00;;;4.23;;
58101;SDS011;52034;51.926;6.320;2023-07-13T04:03:49;10.75;;;3.88;;
58101;SDS011;52034;51.926;6.320;2023-07-13T04:04:50;7.87;;;3.43;;
58101;SDS011;52034;51.926;6.320;2023-07-13T04:05:50;11.77;;;4.50;;
58101;SDS011;52034;51.926;6.320;2023-07-13T04:06:51;10.63;;;4.00;;
58101;SDS011;52034;51.926;6.320;2023-07-13T04:07:53;11.23;;;3.85;;
58101;SDS011;52034;51.926;6.320;2023-07-13T04:08:55;8.23;;;3.70;;
58101;SDS011;52034;51.926;6.320;2023-07-13T04:09:57;11.45;;;4.00;;
58101;SDS011;52034;51.926;6.320;2023-07-13T04:10:57;13.80;;;4.10;;
58101;SDS011;52034;51.926;6.320;2023-07-13T04:11:58;15.13;;;4.40;;
58101;SDS011;52034;51.926;6.320;2023-07-13T04:13:01;10.88;;;4.50;;
58101;SDS011;52034;51.926;6.320;2023-07-13T04:14:02;12.13;;;4.03;;
58101;SDS011;52034;51.926;6.320;2023-07-13T04:15:02;13.18;;;4.35;;
58101;SDS011;52034;51.926;6.320;2023-07-13T04:16:03;8.43;;;4.40;;
58101;SDS011;52034;51.926;6.320;2023-07-13T04:17:04;12.67;;;4.67;;
58101;SDS011;52034;51.926;6.320;2023-07-13T04:18:05;10.70;;;4.20;;
58101;SDS011;52034;51.926;6.320;2023-07-13T04:19:05;13.20;;;4.20;;
58101;SDS011;52034;51.926;6.320;2023-07-13T04:20:06;10.40;;;4.00;;
58101;SDS011;52034;51.926;6.320;2023-07-13T04:21:07;13.25;;;4.32;;
58101;SDS011;52034;51.926;6.320;2023-07-13T04:22:09;13.18;;;4.10;;
58101;SDS011;52034;51.926;6.320;2023-07-13T04:23:09;13.47;;;4.67;;
58101;SDS011;52034;51.926;6.320;2023-07-13T04:24:09;11.97;;;3.73;;
58101;SDS011;52034;51.926;6.320;2023-07-13T04:25:10;10.87;;;4.33;;
58101;SDS011;52034;51.926;6.320;2023-07-13T04:26:10;11.87;;;4.63;;
58101;SDS011;52034;51.926;6.320;2023-07-13T04:27:11;10.30;;;4.60;;
58101;SDS011;52034;51.926;6.320;2023-07-13T04:28:12;11.20;;;4.20;;
58101;SDS011;52034;51.926;6.320;2023-07-13T04:29:12;13.57;;;4.90;;
58101;SDS011;52034;51.926;6.320;2023-07-13T04:30:13;12.67;;;4.57;;
58101;SDS011;52034;51.926;6.320;2023-07-13T04:31:13;13.30;;;4.97;;
58101;SDS011;52034;51.926;6.320;2023-07-13T04:32:14;12.13;;;4.70;;
58101;SDS011;52034;51.926;6.320;2023-07-13T04:33:14;12.40;;;4.70;;
58101;SDS011;52034;51.926;6.320;2023-07-13T04:34:16;13.52;;;4.75;;
58101;SDS011;52034;51.926;6.320;2023-07-13T04:35:17;11.23;;;4.60;;
58101;SDS011;52034;51.926;6.320;2023-07-13T04:36:20;11.98;;;4.47;;
58101;SDS011;52034;51.926;6.320;2023-07-13T04:37:21;14.07;;;4.97;;
58101;SDS011;52034;51.926;6.320;2023-07-13T04:38:22;12.47;;;4.90;;
58101;SDS011;52034;51.926;6.320;2023-07-13T04:39:27;13.20;;;4.97;;
58101;SDS011;52034;51.926;6.320;2023-07-13T04:40:28;9.67;;;4.70;;
58101;SDS011;52034;51.926;6.320;2023-07-13T04:41:29;11.30;;;4.47;;
58101;SDS011;52034;51.926;6.320;2023-07-13T04:42:29;14.27;;;4.90;;
58101;SDS011;52034;51.926;6.320;2023-07-13T04:43:30;15.57;;;4.93;;
58101;SDS011;52034;51.926;6.320;2023-07-13T04:44:31;12.00;;;4.60;;
58101;SDS011;52034;51.926;6.320;2023-07-13T04:45:32;11.87;;;4.70;;
58101;SDS011;52034;51.926;6.320;2023-07-13T04:46:35;11.82;;;4.68;;
58101;SDS011;52034;51.926;6.320;2023-07-13T04:47:35;8.97;;;4.30;;
58101;SDS011;52034;51.926;6.320;2023-07-13T04:48:36;14.47;;;5.20;;
58101;SDS011;52034;51.926;6.320;2023-07-13T04:49:37;17.23;;;5.38;;
58101;SDS011;52034;51.926;6.320;2023-07-13T04:50:37;8.37;;;4.47;;
58101;SDS011;52034;51.926;6.320;2023-07-13T04:51:38;17.63;;;4.83;;
58101;SDS011;52034;51.926;6.320;2023-07-13T04:52:38;11.50;;;5.00;;
58101;SDS011;52034;51.926;6.320;2023-07-13T04:53:39;13.97;;;5.13;;
58101;SDS011;52034;51.926;6.320;2023-07-13T04:54:39;14.83;;;5.40;;
58101;SDS011;52034;51.926;6.320;2023-07-13T04:55:39;11.60;;;4.50;;
58101;SDS011;52034;51.926;6.320;2023-07-13T04:56:40;12.63;;;4.78;;
58101;SDS011;52034;51.926;6.320;2023-07-13T04:57:41;11.37;;;5.00;;
58101;SDS011;52034;51.926;6.320;2023-07-13T04:58:41;15.80;;;4.80;;
58101;SDS011;52034;51.926;6.320;2023-07-13T04:59:42;19.57;;;5.07;;
58101;SDS011;52034;51.926;6.320;2023-07-13T05:00:42;12.83;;;5.10;;
58101;SDS011;52034;51.926;6.320;2023-07-13T05:01:43;15.13;;;4.97;;
58101;SDS011;52034;51.926;6.320;2023-07-13T05:02:44;15.53;;;4.77;;
58101;SDS011;52034;51.926;6.320;2023-07-13T05:03:45;11.07;;;4.90;;
58101;SDS011;52034;51.926;6.320;2023-07-13T05:04:46;13.13;;;4.60;;
58101;SDS011;52034;51.926;6.320;2023-07-13T05:05:54;12.98;;;5.07;;
58101;SDS011;52034;51.926;6.320;2023-07-13T05:06:58;10.77;;;5.25;;
58101;SDS011;52034;51.926;6.320;2023-07-13T05:07:59;15.27;;;5.03;;
58101;SDS011;52034;51.926;6.320;2023-07-13T05:09:00;15.93;;;4.97;;
58101;SDS011;52034;51.926;6.320;2023-07-13T05:10:00;12.13;;;4.67;;
58101;SDS011;52034;51.926;6.320;2023-07-13T05:11:01;14.77;;;4.87;;
58101;SDS011;52034;51.926;6.320;2023-07-13T05:12:03;11.32;;;4.90;;
58101;SDS011;52034;51.926;6.320;2023-07-13T05:13:04;18.17;;;5.17;;
58101;SDS011;52034;51.926;6.320;2023-07-13T05:14:04;19.53;;;5.37;;
58101;SDS011;52034;51.926;6.320;2023-07-13T05:15:05;15.73;;;5.40;;
58101;SDS011;52034;51.926;6.320;2023-07-13T05:16:06;14.32;;;5.35;;
58101;SDS011;52034;51.926;6.320;2023-07-13T05:17:07;14.75;;;5.60;;
58101;SDS011;52034;51.926;6.320;2023-07-13T05:18:08;12.30;;;5.13;;
58101;SDS011;52034;51.926;6.320;2023-07-13T05:19:08;12.27;;;5.37;;
58101;SDS011;52034;51.926;6.320;2023-07-13T05:20:09;14.27;;;5.57;;
58101;SDS011;52034;51.926;6.320;2023-07-13T05:21:10;14.97;;;5.57;;
58101;SDS011;52034;51.926;6.320;2023-07-13T05:22:11;14.95;;;5.30;;
58101;SDS011;52034;51.926;6.320;2023-07-13T05:23:12;14.67;;;5.70;;
58101;SDS011;52034;51.926;6.320;2023-07-13T05:24:12;14.10;;;5.80;;
58101;SDS011;52034;51.926;6.320;2023-07-13T05:25:12;13.30;;;5.80;;
58101;SDS011;52034;51.926;6.320;2023-07-13T05:26:13;17.38;;;5.70;;
58101;SDS011;52034;51.926;6.320;2023-07-13T05:27:14;11.97;;;5.37;;
58101;SDS011;52034;51.926;6.320;2023-07-13T05:28:14;17.07;;;6.10;;
58101;SDS011;52034;51.926;6.320;2023-07-13T05:29:15;17.53;;;5.80;;
58101;SDS011;52034;51.926;6.320;2023-07-13T05:30:15;20.07;;;6.30;;
58101;SDS011;52034;51.926;6.320;2023-07-13T05:31:16;11.87;;;5.70;;
58101;SDS011;52034;51.926;6.320;2023-07-13T05:32:16;21.50;;;6.10;;
58101;SDS011;52034;51.926;6.320;2023-07-13T05:33:18;16.55;;;6.40;;
58101;SDS011;52034;51.926;6.320;2023-07-13T05:34:18;16.57;;;6.67;;
58101;SDS011;52034;51.926;6.320;2023-07-13T05:35:19;16.63;;;5.73;;
58101;SDS011;52034;51.926;6.320;2023-07-13T05:36:19;17.80;;;6.70;;
58101;SDS011;52034;51.926;6.320;2023-07-13T05:37:20;14.73;;;6.37;;
58101;SDS011;52034;51.926;6.320;2023-07-13T05:38:20;18.37;;;6.43;;
58101;SDS011;52034;51.926;6.320;2023-07-13T05:39:21;17.47;;;6.40;;
58101;SDS011;52034;51.926;6.320;2023-07-13T05:40:22;17.00;;;6.40;;
58101;SDS011;52034;51.926;6.320;2023-07-13T05:41:22;15.07;;;6.17;;
58101;SDS011;52034;51.926;6.320;2023-07-13T05:42:23;19.67;;;6.73;;
58101;SDS011;52034;51.926;6.320;2023-07-13T05:43:23;18.23;;;7.37;;
58101;SDS011;52034;51.926;6.320;2023-07-13T05:44:24;15.45;;;8.02;;
58101;SDS011;52034;51.926;6.320;2023-07-13T05:45:24;22.37;;;8.33;;
58101;SDS011;52034;51.926;6.320;2023-07-13T05:46:26;19.95;;;7.00;;
58101;SDS011;52034;51.926;6.320;2023-07-13T05:47:26;14.60;;;6.73;;
58101;SDS011;52034;51.926;6.320;2023-07-13T05:48:27;25.70;;;8.07;;
58101;SDS011;52034;51.926;6.320;2023-07-13T05:49:27;16.17;;;7.30;;
58101;SDS011;52034;51.926;6.320;2023-07-13T05:50:30;18.45;;;7.30;;
58101;SDS011;52034;51.926;6.320;2023-07-13T05:51:30;22.43;;;7.93;;
58101;SDS011;52034;51.926;6.320;2023-07-13T05:52:31;15.27;;;6.70;;
58101;SDS011;52034;51.926;6.320;2023-07-13T05:53:31;20.00;;;7.23;;
58101;SDS011;52034;51.926;6.320;2023-07-13T05:54:32;20.20;;;7.43;;
58101;SDS011;52034;51.926;6.320;2023-07-13T05:55:32;17.50;;;7.50;;
58101;SDS011;52034;51.926;6.320;2023-07-13T05:56:33;19.02;;;7.72;;
58101;SDS011;52034;51.926;6.320;2023-07-13T05:57:33;19.53;;;7.97;;
58101;SDS011;52034;51.926;6.320;2023-07-13T05:58:34;19.10;;;7.67;;
58101;SDS011;52034;51.926;6.320;2023-07-13T05:59:35;17.08;;;7.13;;
58101;SDS011;52034;51.926;6.320;2023-07-13T06:00:35;15.57;;;6.53;;
58101;SDS011;52034;51.926;6.320;2023-07-13T06:01:36;21.80;;;8.77;;
58101;SDS011;52034;51.926;6.320;2023-07-13T06:02:36;26.23;;;7.90;;
58101;SDS011;52034;51.926;6.320;2023-07-13T06:03:37;19.07;;;7.37;;
58101;SDS011;52034;51.926;6.320;2023-07-13T06:04:40;17.45;;;7.38;;
58101;SDS011;52034;51.926;6.320;2023-07-13T06:05:41;15.33;;;7.40;;
58101;SDS011;52034;51.926;6.320;2023-07-13T06:06:41;22.80;;;8.23;;
58101;SDS011;52034;51.926;6.320;2023-07-13T06:07:42;18.63;;;8.27;;
58101;SDS011;52034;51.926;6.320;2023-07-13T06:08:42;18.03;;;7.70;;
58101;SDS011;52034;51.926;6.320;2023-07-13T06:09:43;20.30;;;7.30;;
58101;SDS011;52034;51.926;6.320;2023-07-13T06:10:43;21.77;;;8.80;;
58101;SDS011;52034;51.926;6.320;2023-07-13T06:11:43;19.83;;;8.27;;
58101;SDS011;52034;51.926;6.320;2023-07-13T06:12:45;21.10;;;8.65;;
58101;SDS011;52034;51.926;6.320;2023-07-13T06:13:45;23.43;;;8.80;;
58101;SDS011;52034;51.926;6.320;2023-07-13T06:14:46;20.00;;;7.87;;
58101;SDS011;52034;51.926;6.320;2023-07-13T06:15:49;22.43;;;8.73;;
58101;SDS011;52034;51.926;6.320;2023-07-13T06:16:50;27.85;;;9.10;;